createdAt,value
2019-04-30T00:01:26.410Z,41.13
2019-04-30T00:04:05.741Z,39.73
2019-04-30T00:06:39.476Z,41.60
2019-04-30T00:09:15.218Z,40.25
2019-04-30T00:11:50.536Z,40.65
2019-04-30T00:14:20.387Z,42.15
2019-04-30T00:16:52.013Z,41.25
2019-04-30T00:19:23.462Z,39.67
2019-04-30T00:22:00.096Z,41.05
2019-04-30T00:24:28.322Z,41.53
2019-04-30T00:26:59.927Z,42.40
2019-04-30T00:29:32.821Z,41.98
2019-04-30T00:32:07.799Z,41.48
2019-04-30T00:34:39.372Z,41.42
2019-04-30T00:37:13.989Z,40.03
2019-04-30T00:39:50.704Z,41.90
2019-04-30T00:42:24.116Z,41.70
2019-04-30T00:44:51.188Z,42.10
2019-04-30T00:47:22.780Z,40.00
2019-04-30T00:49:57.554Z,41.48
2019-04-30T00:52:29.568Z,42.55
2019-04-30T00:55:04.838Z,43.85
2019-04-30T00:57:37.295Z,42.85
2019-04-30T01:00:12.200Z,43.02
2019-04-30T01:03:00.807Z,42.25
2019-04-30T01:05:32.942Z,46.68
2019-04-30T01:08:07.029Z,45.85
2019-04-30T01:10:38.264Z,43.55
2019-04-30T01:13:11.899Z,42.10
2019-04-30T01:15:44.116Z,42.13
2019-04-30T01:18:16.264Z,44.50
2019-04-30T01:20:48.753Z,46.08
2019-04-30T01:23:21.144Z,49.27
2019-04-30T01:25:52.663Z,47.67
2019-04-30T01:28:24.450Z,41.02
2019-04-30T01:30:58.695Z,46.02
2019-04-30T01:33:34.468Z,46.20
2019-04-30T01:36:04.049Z,52.15
2019-04-30T01:38:40.019Z,54.30
2019-04-30T01:41:09.715Z,48.80
2019-04-30T01:43:41.346Z,43.70
2019-04-30T01:46:14.022Z,40.60
2019-04-30T01:48:48.621Z,38.58
2019-04-30T01:51:21.783Z,39.63
2019-04-30T01:53:52.374Z,40.15
2019-04-30T01:56:25.648Z,41.08
2019-04-30T01:58:59.537Z,41.18
2019-04-30T02:04:04.306Z,42.05
2019-04-30T02:06:35.861Z,41.33
2019-04-30T02:09:09.136Z,44.55
2019-04-30T02:11:40.611Z,43.13
2019-04-30T02:14:12.231Z,45.75
2019-04-30T02:16:43.702Z,48.45
2019-04-30T02:19:15.232Z,45.63
2019-04-30T02:21:48.647Z,43.48
2019-04-30T02:24:21.326Z,44.83
2019-04-30T02:26:52.703Z,45.10
2019-04-30T02:29:24.364Z,45.73
2019-04-30T02:31:55.754Z,42.25
2019-04-30T02:34:30.312Z,44.15
2019-04-30T02:37:09.866Z,45.08
2019-04-30T02:39:41.494Z,43.48
2019-04-30T02:42:13.666Z,43.87
2019-04-30T02:44:46.129Z,41.63
2019-04-30T02:47:20.741Z,41.53
2019-04-30T02:49:53.659Z,41.25
2019-04-30T02:52:29.332Z,44.05
2019-04-30T02:55:03.447Z,42.83
2019-04-30T02:57:34.834Z,42.25
2019-04-30T03:00:10.160Z,41.08
2019-04-30T03:02:41.944Z,41.20
2019-04-30T03:05:14.303Z,41.58
2019-04-30T03:07:45.938Z,40.38
2019-04-30T03:10:19.838Z,40.90
2019-04-30T03:12:50.995Z,39.73
2019-04-30T03:15:23.092Z,40.40
2019-04-30T03:17:56.340Z,40.20
2019-04-30T03:20:35.715Z,39.83
2019-04-30T03:23:02.680Z,41.58
2019-04-30T03:25:34.439Z,41.35
2019-04-30T03:28:05.920Z,40.80
2019-04-30T03:30:41.395Z,39.15
2019-04-30T03:33:12.628Z,40.55
2019-04-30T03:35:47.831Z,39.90
2019-04-30T03:38:17.120Z,41.40
2019-04-30T03:40:50.204Z,43.10
2019-04-30T03:43:22.324Z,41.08
2019-04-30T03:45:53.943Z,42.93
2019-04-30T03:48:25.479Z,40.92
2019-04-30T03:50:57.492Z,44.63
2019-04-30T03:53:30.217Z,41.30
2019-04-30T03:56:01.669Z,41.85
2019-04-30T03:58:33.326Z,43.35
2019-04-30T04:01:06.388Z,43.75
2019-04-30T04:03:55.769Z,42.80
2019-04-30T04:06:29.313Z,41.50
2019-04-30T04:09:06.021Z,43.13
2019-04-30T04:11:39.710Z,39.25
2019-04-30T04:14:11.378Z,38.13
2019-04-30T04:16:43.019Z,39.38
2019-04-30T04:19:14.734Z,37.45
2019-04-30T04:21:46.171Z,36.80
2019-04-30T04:24:20.202Z,35.40
2019-04-30T04:26:51.011Z,37.05
2019-04-30T04:29:22.414Z,38.42
2019-04-30T04:31:53.915Z,35.52
2019-04-30T04:34:25.426Z,35.05
2019-04-30T04:36:56.852Z,33.90
2019-04-30T04:39:29.737Z,32.38
2019-04-30T04:42:01.271Z,31.93
2019-04-30T04:44:32.886Z,30.70
2019-04-30T04:47:04.551Z,30.85
2019-04-30T04:49:36.186Z,31.15
2019-04-30T04:52:10.188Z,29.20
2019-04-30T04:54:40.902Z,31.90
2019-04-30T04:57:17.991Z,28.62
2019-04-30T04:59:45.823Z,26.97
2019-04-30T05:02:32.120Z,28.57
2019-04-30T05:05:00.912Z,27.15
2019-04-30T05:07:32.427Z,27.35
2019-04-30T05:10:09.037Z,27.17
2019-04-30T05:12:40.249Z,26.70
2019-04-30T05:15:19.469Z,25.23
2019-04-30T05:17:51.290Z,24.90
2019-04-30T05:20:22.694Z,24.05
2019-04-30T05:22:54.390Z,22.90
2019-04-30T05:25:26.040Z,23.27
2019-04-30T05:27:58.683Z,22.52
2019-04-30T05:30:30.347Z,21.90
2019-04-30T05:33:01.878Z,20.37
2019-04-30T05:35:33.486Z,21.27
2019-04-30T05:38:05.008Z,19.40
2019-04-30T05:40:39.416Z,19.10
2019-04-30T05:43:11.415Z,18.60
2019-04-30T05:45:43.152Z,19.75
2019-04-30T05:48:14.584Z,20.00
2019-04-30T05:50:46.126Z,20.08
2019-04-30T05:53:19.053Z,18.42
2019-04-30T05:55:50.706Z,18.07
2019-04-30T05:58:22.265Z,16.73
2019-04-30T06:00:53.956Z,17.00
2019-04-30T06:03:30.752Z,15.70
2019-04-30T06:05:59.024Z,16.30
2019-04-30T06:08:32.809Z,15.88
2019-04-30T06:11:09.358Z,19.27
2019-04-30T06:13:54.732Z,20.90
2019-04-30T06:18:58.660Z,21.68
2019-04-30T06:21:30.577Z,20.77
2019-04-30T06:24:02.177Z,19.20
2019-04-30T06:26:33.781Z,18.20
2019-04-30T06:29:05.323Z,16.17
2019-04-30T06:31:37.976Z,17.23
2019-04-30T06:34:10.100Z,15.70
2019-04-30T06:36:51.086Z,13.58
2019-04-30T06:39:16.173Z,15.68
2019-04-30T06:41:49.371Z,15.40
2019-04-30T06:44:21.245Z,16.07
2019-04-30T06:46:53.462Z,15.13
2019-04-30T06:49:28.871Z,14.87
2019-04-30T06:52:00.554Z,18.37
2019-04-30T06:54:32.151Z,16.75
2019-04-30T06:57:03.531Z,14.28
2019-04-30T06:59:35.119Z,15.83
2019-04-30T07:02:06.688Z,17.30
2019-04-30T07:04:40.038Z,17.20
2019-04-30T07:07:14.345Z,14.38
2019-04-30T07:09:53.176Z,16.65
2019-04-30T07:12:27.802Z,14.87
2019-04-30T07:14:59.069Z,14.50
2019-04-30T07:17:30.822Z,10.43
2019-04-30T07:20:02.452Z,14.80
2019-04-30T07:25:09.506Z,11.40
2019-04-30T07:27:41.406Z,12.05
2019-04-30T07:30:12.949Z,13.00
2019-04-30T07:32:44.430Z,11.43
2019-04-30T07:35:15.975Z,11.85
2019-04-30T07:37:49.511Z,10.90
2019-04-30T07:40:20.927Z,11.83
2019-04-30T07:42:52.323Z,12.25
2019-04-30T07:45:25.694Z,11.12
2019-04-30T07:47:59.210Z,10.20
2019-04-30T07:50:31.610Z,12.78
2019-04-30T07:53:06.503Z,11.25
2019-04-30T07:55:39.107Z,10.05
2019-04-30T07:58:10.215Z,11.12
2019-04-30T08:00:41.682Z,10.30
2019-04-30T08:03:24.458Z,9.90
2019-04-30T08:05:59.869Z,9.93
2019-04-30T08:08:31.120Z,10.38
2019-04-30T08:09:36.937Z,11.57
2019-04-30T08:11:03.766Z,9.43
2019-04-30T08:13:37.519Z,9.03
2019-04-30T08:16:09.849Z,10.30
2019-04-30T08:18:41.375Z,8.70
2019-04-30T08:21:12.860Z,8.80
2019-04-30T08:23:44.312Z,8.90
2019-04-30T08:26:15.879Z,9.43
2019-04-30T08:28:48.760Z,9.28
2019-04-30T08:31:20.458Z,9.63
2019-04-30T08:33:52.028Z,8.60
2019-04-30T08:36:23.489Z,8.13
2019-04-30T08:38:56.310Z,8.50
2019-04-30T08:41:29.217Z,8.60
2019-04-30T08:44:00.956Z,8.35
2019-04-30T08:46:32.657Z,8.60
2019-04-30T08:49:04.162Z,8.63
2019-04-30T08:51:35.787Z,7.85
2019-04-30T08:54:07.175Z,8.25
2019-04-30T08:56:38.880Z,10.98
2019-04-30T08:59:11.140Z,7.17
2019-04-30T09:01:42.992Z,6.33
2019-04-30T09:04:14.533Z,6.70
2019-04-30T09:06:45.937Z,7.62
2019-04-30T09:09:18.806Z,6.50
2019-04-30T09:11:55.459Z,6.67
2019-04-30T09:14:23.528Z,6.33
2019-04-30T09:16:55.354Z,6.40
2019-04-30T09:19:29.750Z,5.72
2019-04-30T09:22:02.783Z,6.70
2019-04-30T09:24:34.352Z,5.83
2019-04-30T09:27:05.655Z,7.03
2019-04-30T09:29:39.061Z,6.05
2019-04-30T09:32:10.275Z,6.40
2019-04-30T09:34:41.712Z,6.25
2019-04-30T09:37:12.997Z,5.80
2019-04-30T09:39:44.438Z,6.10
2019-04-30T09:42:15.861Z,5.67
2019-04-30T09:44:49.301Z,6.05
2019-04-30T09:47:20.658Z,5.92
2019-04-30T09:49:53.799Z,6.30
2019-04-30T09:52:25.322Z,5.15
2019-04-30T09:54:56.752Z,5.03
2019-04-30T09:57:29.018Z,5.53
2019-04-30T10:00:00.696Z,13.72
2019-04-30T10:02:32.264Z,14.20
2019-04-30T10:05:05.954Z,14.40
2019-04-30T10:07:39.323Z,14.98
2019-04-30T10:10:13.204Z,15.95
2019-04-30T10:12:44.962Z,17.35
2019-04-30T10:15:18.937Z,18.23
2019-04-30T10:17:52.714Z,17.65
2019-04-30T10:20:29.865Z,17.52
2019-04-30T10:23:01.547Z,17.35
2019-04-30T10:25:34.009Z,16.90
2019-04-30T10:28:06.128Z,16.45
2019-04-30T10:30:38.279Z,16.95
2019-04-30T10:33:10.147Z,16.23
2019-04-30T10:35:41.736Z,16.42
2019-04-30T10:38:14.374Z,16.62
2019-04-30T10:40:45.932Z,15.90
2019-04-30T10:43:17.425Z,18.35
2019-04-30T10:45:48.785Z,17.00
2019-04-30T10:48:20.466Z,17.10
2019-04-30T10:50:52.434Z,18.20
2019-04-30T10:53:24.048Z,18.37
2019-04-30T10:55:56.607Z,17.05
2019-04-30T10:58:28.220Z,18.20
2019-04-30T11:01:02.014Z,17.77
2019-04-30T11:03:33.079Z,18.15
2019-04-30T11:06:04.747Z,22.22
2019-04-30T11:08:36.249Z,24.00
2019-04-30T11:11:07.772Z,29.90
2019-04-30T11:13:39.193Z,35.48
2019-04-30T11:16:14.737Z,47.78
2019-04-30T11:18:44.168Z,48.10
2019-04-30T11:21:19.368Z,51.25
2019-04-30T11:23:50.526Z,55.50
2019-04-30T11:26:22.524Z,55.50
2019-04-30T11:28:54.562Z,54.25
2019-04-30T11:31:28.019Z,52.83
2019-04-30T11:34:01.305Z,54.93
2019-04-30T11:36:32.806Z,54.93
2019-04-30T11:39:08.875Z,53.65
2019-04-30T11:41:40.414Z,50.98
2019-04-30T11:44:11.828Z,50.33
2019-04-30T11:47:01.312Z,51.63
2019-04-30T11:49:32.862Z,48.63
2019-04-30T11:52:04.324Z,51.73
2019-04-30T11:54:35.694Z,51.05
2019-04-30T11:57:08.939Z,51.37
2019-04-30T11:59:40.552Z,53.23
2019-04-30T12:02:13.664Z,49.73
2019-04-30T12:04:45.139Z,48.80
2019-04-30T12:07:21.101Z,47.10
2019-04-30T12:09:56.994Z,49.27
2019-04-30T12:12:28.995Z,47.78
2019-04-30T12:15:02.849Z,47.25
2019-04-30T12:17:34.496Z,48.05
2019-04-30T12:20:08.703Z,47.45
2019-04-30T12:22:40.368Z,46.95
2019-04-30T12:25:11.866Z,45.00
2019-04-30T12:27:43.475Z,44.40
2019-04-30T12:30:15.481Z,43.42
2019-04-30T12:32:46.959Z,46.10
2019-04-30T12:35:18.719Z,45.65
2019-04-30T12:37:52.368Z,45.78
2019-04-30T12:40:28.765Z,44.48
2019-04-30T12:42:56.372Z,41.75
2019-04-30T12:45:29.429Z,42.43
2019-04-30T12:48:02.629Z,42.23
2019-04-30T12:50:39.216Z,41.60
2019-04-30T12:53:24.583Z,41.83
2019-04-30T12:56:06.577Z,41.05
2019-04-30T12:58:37.916Z,38.63
2019-04-30T13:01:09.810Z,42.35
2019-04-30T13:03:41.377Z,41.25
2019-04-30T13:06:14.534Z,41.23
2019-04-30T13:08:46.740Z,38.20
2019-04-30T13:11:21.102Z,38.60
2019-04-30T13:13:52.285Z,37.90
2019-04-30T13:16:24.141Z,36.20
2019-04-30T13:18:55.636Z,36.28
2019-04-30T13:21:28.498Z,34.13
2019-04-30T13:24:01.216Z,34.70
2019-04-30T13:26:32.923Z,34.10
2019-04-30T13:29:08.999Z,34.18
2019-04-30T13:31:40.535Z,34.88
2019-04-30T13:34:30.018Z,33.48
2019-04-30T13:37:01.625Z,34.80
2019-04-30T13:39:48.124Z,31.70
2019-04-30T13:42:18.121Z,32.35
2019-04-30T13:44:49.351Z,30.97
2019-04-30T13:47:21.075Z,33.05
2019-04-30T13:49:52.534Z,31.85
2019-04-30T13:52:24.087Z,30.68
2019-04-30T13:54:55.532Z,30.90
2019-04-30T13:57:27.047Z,30.75
2019-04-30T13:59:58.708Z,29.72
2019-04-30T14:02:31.834Z,31.57
2019-04-30T14:05:14.624Z,30.68
2019-04-30T14:07:57.129Z,30.37
2019-04-30T14:10:30.181Z,29.20
2019-04-30T14:13:03.404Z,30.52
2019-04-30T14:15:34.964Z,30.50
2019-04-30T14:18:06.628Z,29.32
2019-04-30T14:20:38.034Z,31.07
2019-04-30T14:23:10.728Z,29.40
2019-04-30T14:25:42.337Z,29.52
2019-04-30T14:28:13.891Z,27.52
2019-04-30T14:30:45.421Z,28.40
2019-04-30T14:33:25.582Z,27.25
2019-04-30T14:35:50.147Z,28.20
2019-04-30T14:38:21.657Z,29.07
2019-04-30T14:40:53.712Z,26.93
2019-04-30T14:43:42.373Z,28.02
2019-04-30T14:46:30.094Z,27.37
2019-04-30T14:49:07.705Z,25.88
2019-04-30T14:51:39.495Z,27.65
2019-04-30T14:54:12.655Z,27.32
2019-04-30T14:56:45.656Z,27.67
2019-04-30T14:59:24.683Z,27.27
2019-04-30T15:01:59.165Z,28.15
2019-04-30T15:04:30.812Z,27.20
2019-04-30T15:07:02.283Z,26.30
2019-04-30T15:09:33.817Z,26.48
2019-04-30T15:12:05.881Z,25.62
2019-04-30T15:14:38.788Z,26.02
2019-04-30T15:17:11.167Z,26.68
2019-04-30T15:19:42.709Z,26.15
2019-04-30T15:22:14.195Z,27.40
2019-04-30T15:24:45.732Z,27.55
2019-04-30T15:27:19.028Z,26.82
2019-04-30T15:29:57.036Z,28.65
2019-04-30T15:32:23.640Z,28.15
2019-04-30T15:34:55.144Z,28.20
2019-04-30T15:37:28.561Z,29.82
2019-04-30T15:39:59.912Z,29.48
2019-04-30T15:42:33.576Z,28.67
2019-04-30T15:45:06.966Z,29.18
2019-04-30T15:47:38.802Z,28.90
2019-04-30T15:50:11.471Z,30.25
2019-04-30T15:52:42.838Z,30.15
2019-04-30T15:55:14.328Z,29.82
2019-04-30T15:57:59.779Z,30.27
2019-04-30T16:00:32.522Z,30.97
2019-04-30T16:03:18.722Z,31.70
2019-04-30T16:05:51.954Z,32.08
2019-04-30T16:08:26.048Z,32.97
2019-04-30T16:11:00.485Z,32.65
2019-04-30T16:13:34.782Z,32.15
2019-04-30T16:16:06.242Z,34.05
2019-04-30T16:18:42.025Z,33.83
2019-04-30T16:21:13.448Z,35.45
2019-04-30T16:23:44.830Z,33.78
2019-04-30T16:26:16.330Z,34.55
2019-04-30T16:28:49.489Z,34.40
2019-04-30T16:31:22.356Z,34.95
2019-04-30T16:33:53.803Z,38.00
2019-04-30T16:36:25.206Z,36.60
2019-04-30T16:38:58.601Z,37.93
2019-04-30T16:41:31.774Z,36.15
2019-04-30T16:44:03.222Z,35.10
2019-04-30T16:46:34.648Z,36.25
2019-04-30T16:49:06.021Z,36.00
2019-04-30T16:51:38.633Z,37.42
2019-04-30T16:54:10.183Z,38.95
2019-04-30T16:56:41.691Z,37.63
2019-04-30T16:59:17.677Z,38.08
2019-04-30T17:01:57.488Z,37.38
2019-04-30T17:04:40.279Z,40.00
2019-04-30T17:07:16.453Z,41.98
2019-04-30T17:09:59.079Z,40.35
2019-04-30T17:12:51.232Z,40.55
2019-04-30T17:15:25.089Z,38.42
2019-04-30T17:17:58.296Z,37.33
2019-04-30T17:20:29.632Z,36.13
2019-04-30T17:23:01.064Z,37.75
2019-04-30T17:25:32.517Z,38.53
2019-04-30T17:28:03.937Z,39.95
2019-04-30T17:30:35.441Z,37.63
2019-04-30T17:33:09.362Z,37.53
2019-04-30T17:35:40.317Z,37.85
2019-04-30T17:38:11.707Z,41.35
2019-04-30T17:40:43.160Z,40.03
2019-04-30T17:43:14.689Z,38.78
2019-04-30T17:45:46.232Z,38.83
2019-04-30T17:48:17.644Z,39.42
2019-04-30T17:50:49.777Z,39.80
2019-04-30T17:53:21.401Z,40.63
2019-04-30T17:55:52.849Z,38.30
2019-04-30T17:58:24.342Z,39.88
2019-04-30T18:00:57.490Z,40.63
2019-04-30T18:03:29.008Z,38.73
2019-04-30T18:06:00.480Z,37.53
2019-04-30T18:08:31.914Z,40.30
2019-04-30T18:11:03.419Z,38.35
2019-04-30T18:13:34.915Z,35.73
2019-04-30T18:16:06.482Z,37.25
2019-04-30T18:18:55.721Z,37.50
2019-04-30T18:21:31.497Z,38.83
2019-04-30T18:24:16.641Z,39.03
2019-04-30T18:26:53.417Z,36.80
2019-04-30T18:29:24.889Z,36.88
2019-04-30T18:31:56.619Z,35.92
2019-04-30T18:34:29.176Z,38.53
2019-04-30T18:37:00.799Z,36.40
2019-04-30T18:39:32.269Z,34.45
2019-04-30T18:42:03.793Z,35.92
2019-04-30T18:44:35.268Z,37.03
2019-04-30T18:47:08.921Z,37.20
2019-04-30T18:49:41.035Z,35.55
2019-04-30T18:52:12.495Z,36.35
2019-04-30T18:54:44.020Z,35.92
2019-04-30T18:57:15.486Z,37.55
2019-04-30T18:59:46.985Z,36.45
2019-04-30T19:02:19.512Z,36.38
2019-04-30T19:04:51.186Z,36.15
2019-04-30T19:07:24.532Z,36.93
2019-04-30T19:09:58.874Z,37.28
2019-04-30T19:12:41.064Z,37.67
2019-04-30T19:15:16.859Z,37.28
2019-04-30T19:17:52.798Z,36.73
2019-04-30T19:20:25.889Z,37.13
2019-04-30T19:22:57.326Z,37.55
2019-04-30T19:25:28.999Z,35.70
2019-04-30T19:28:11.631Z,38.70
2019-04-30T19:30:33.818Z,36.28
2019-04-30T19:33:05.423Z,38.53
2019-04-30T19:35:37.027Z,38.60
2019-04-30T19:38:09.210Z,38.73
2019-04-30T19:40:40.819Z,40.33
2019-04-30T19:43:12.580Z,39.73
2019-04-30T19:45:44.020Z,38.92
2019-04-30T19:48:16.183Z,38.95
2019-04-30T19:50:48.915Z,39.70
2019-04-30T19:53:22.307Z,36.93
2019-04-30T19:55:53.854Z,36.35
2019-04-30T19:58:37.751Z,37.13
2019-04-30T20:00:59.503Z,36.20
2019-04-30T20:03:31.164Z,39.10
2019-04-30T20:06:02.572Z,36.73
2019-04-30T20:08:34.025Z,35.40
2019-04-30T20:11:05.402Z,40.30
2019-04-30T20:13:37.421Z,37.42
2019-04-30T20:16:09.614Z,37.15
2019-04-30T20:18:41.145Z,38.05
2019-04-30T20:21:14.154Z,36.50
2019-04-30T20:23:45.541Z,35.95
2019-04-30T20:26:16.891Z,34.27
2019-04-30T20:28:48.760Z,38.10
2019-04-30T20:31:20.235Z,37.20
2019-04-30T20:33:53.699Z,37.48
2019-04-30T20:36:24.764Z,39.42
2019-04-30T20:38:57.837Z,40.00
2019-04-30T20:41:30.603Z,37.75
2019-04-30T20:44:01.988Z,35.90
2019-04-30T20:46:35.331Z,37.65
2019-04-30T20:49:06.826Z,38.90
2019-04-30T20:51:40.157Z,36.73
2019-04-30T20:54:11.601Z,34.00
2019-04-30T20:56:43.032Z,37.80
2019-04-30T20:59:14.500Z,36.90
2019-04-30T21:01:46.007Z,37.33
2019-04-30T21:04:20.421Z,38.10
2019-04-30T21:06:50.756Z,37.73
2019-04-30T21:09:22.125Z,36.15
2019-04-30T21:11:53.583Z,39.73
2019-04-30T21:14:25.056Z,37.00
2019-04-30T21:16:56.540Z,39.05
2019-04-30T21:19:28.008Z,38.15
2019-04-30T21:21:59.676Z,39.40
2019-04-30T21:24:31.192Z,39.88
2019-04-30T21:27:02.600Z,39.95
2019-04-30T21:29:34.049Z,38.65
2019-04-30T21:32:09.889Z,36.93
2019-04-30T21:34:43.115Z,41.37
2019-04-30T21:37:14.695Z,37.93
2019-04-30T21:39:46.139Z,37.58
2019-04-30T21:42:17.655Z,37.30
2019-04-30T21:44:48.991Z,37.58
2019-04-30T21:47:20.414Z,38.90
2019-04-30T21:49:51.770Z,36.40
2019-04-30T21:52:23.248Z,34.90
2019-04-30T21:54:54.668Z,37.13
2019-04-30T21:57:26.085Z,36.20
2019-04-30T21:59:58.775Z,34.30
2019-04-30T22:02:30.533Z,36.35
2019-04-30T22:05:05.442Z,36.30
2019-04-30T22:07:36.940Z,38.53
2019-04-30T22:10:08.839Z,34.92
2019-04-30T22:12:40.479Z,37.23
2019-04-30T22:15:13.662Z,35.80
2019-04-30T22:17:45.134Z,37.40
2019-04-30T22:20:16.559Z,36.58
2019-04-30T22:22:49.001Z,37.65
2019-04-30T22:25:20.455Z,36.50
2019-04-30T22:27:51.898Z,37.85
2019-04-30T22:30:23.274Z,35.68
2019-04-30T22:32:54.791Z,33.85
2019-04-30T22:35:27.774Z,35.92
2019-04-30T22:38:03.655Z,38.28
2019-04-30T22:40:35.095Z,35.68
2019-04-30T22:43:06.572Z,37.10
2019-04-30T22:45:43.751Z,36.83
2019-04-30T22:48:15.192Z,37.30
2019-04-30T22:50:46.624Z,36.20
2019-04-30T22:53:18.077Z,37.48
2019-04-30T22:55:49.456Z,38.13
2019-04-30T22:58:20.947Z,40.23
2019-04-30T23:00:54.061Z,38.30
2019-04-30T23:03:27.192Z,37.95
2019-04-30T23:05:58.788Z,38.40
2019-04-30T23:08:30.232Z,37.90
2019-04-30T23:11:01.591Z,38.58
2019-04-30T23:13:33.070Z,36.85
2019-04-30T23:16:05.964Z,36.20
2019-04-30T23:18:37.351Z,34.63
2019-04-30T23:21:08.708Z,35.52
2019-04-30T23:23:40.155Z,35.30
2019-04-30T23:26:11.546Z,34.80
2019-04-30T23:28:42.954Z,34.43
2019-04-30T23:31:14.339Z,34.33
2019-04-30T23:33:45.762Z,36.48
2019-04-30T23:36:18.258Z,37.08
2019-04-30T23:38:49.687Z,37.95
2019-04-30T23:41:21.375Z,37.23
2019-04-30T23:43:55.045Z,39.92
2019-04-30T23:46:26.037Z,39.83
2019-04-30T23:48:57.554Z,40.05
2019-04-30T23:51:29.040Z,39.67
2019-04-30T23:54:00.458Z,38.83
2019-04-30T23:56:31.845Z,40.85
2019-04-30T23:59:03.284Z,41.88
